createdAt,value
2019-05-18T00:00:09.912Z,11.00
2019-05-18T00:02:38.410Z,10.90
2019-05-18T00:05:08.199Z,10.90
2019-05-18T00:07:36.612Z,10.90
2019-05-18T00:10:07.251Z,10.80
2019-05-18T00:12:35.710Z,10.90
2019-05-18T00:15:06.449Z,10.90
2019-05-18T00:17:34.951Z,10.80
2019-05-18T00:20:06.822Z,10.90
2019-05-18T00:22:35.339Z,10.80
2019-05-18T00:25:05.100Z,10.80
2019-05-18T00:27:33.538Z,10.80
2019-05-18T00:30:02.007Z,10.70
2019-05-18T00:32:30.751Z,10.70
2019-05-18T00:34:59.185Z,10.70
2019-05-18T00:37:27.623Z,10.70
2019-05-18T00:39:56.112Z,10.70
2019-05-18T00:42:24.554Z,10.70
2019-05-18T00:44:52.994Z,10.60
2019-05-18T00:47:21.543Z,10.60
2019-05-18T00:49:49.982Z,10.70
2019-05-18T00:52:18.490Z,10.70
2019-05-18T00:54:46.974Z,10.60
2019-05-18T00:57:15.419Z,10.50
2019-05-18T00:59:43.846Z,10.40
2019-05-18T01:02:12.334Z,10.40
2019-05-18T01:04:40.796Z,10.40
2019-05-18T01:07:09.243Z,10.30
2019-05-18T01:09:37.981Z,10.20
2019-05-18T01:12:06.474Z,10.30
2019-05-18T01:14:34.919Z,10.30
2019-05-18T01:17:03.363Z,10.20
2019-05-18T01:19:31.866Z,10.30
2019-05-18T01:22:00.394Z,10.40
2019-05-18T01:24:28.887Z,10.40
2019-05-18T01:26:57.329Z,10.30
2019-05-18T01:29:25.759Z,10.30
2019-05-18T01:31:54.264Z,10.30
2019-05-18T01:34:22.710Z,10.30
2019-05-18T01:36:51.154Z,10.20
2019-05-18T01:39:19.874Z,10.20
2019-05-18T01:41:48.343Z,10.20
2019-05-18T01:44:16.867Z,10.20
2019-05-18T01:46:45.447Z,10.10
2019-05-18T01:49:13.879Z,10.20
2019-05-18T01:51:42.312Z,10.20
2019-05-18T01:54:11.616Z,10.20
2019-05-18T01:56:40.043Z,10.20
2019-05-18T01:59:08.499Z,10.20
2019-05-18T02:01:37.003Z,10.10
2019-05-18T02:04:05.457Z,10.10
2019-05-18T02:06:33.898Z,10.20
2019-05-18T02:09:02.506Z,10.20
2019-05-18T02:11:30.942Z,10.10
2019-05-18T02:13:59.402Z,10.10
2019-05-18T02:16:28.063Z,10.00
2019-05-18T02:18:56.490Z,10.20
2019-05-18T02:21:24.920Z,10.30
2019-05-18T02:23:53.799Z,10.30
2019-05-18T02:26:22.304Z,10.20
2019-05-18T02:28:50.744Z,10.00
2019-05-18T02:31:19.454Z,9.90
2019-05-18T02:33:47.912Z,10.00
2019-05-18T02:36:16.343Z,10.00
2019-05-18T02:38:44.991Z,9.90
2019-05-18T02:41:13.419Z,9.90
2019-05-18T02:43:41.867Z,9.80
2019-05-18T02:46:10.518Z,9.90
2019-05-18T02:48:48.747Z,9.70
2019-05-18T02:51:11.634Z,9.70
2019-05-18T02:53:39.659Z,9.90
2019-05-18T02:56:08.103Z,9.80
2019-05-18T02:58:36.860Z,9.60
2019-05-18T03:01:05.380Z,9.60
2019-05-18T03:03:33.885Z,9.60
2019-05-18T03:06:02.377Z,9.40
2019-05-18T03:08:31.227Z,9.60
2019-05-18T03:10:59.665Z,9.40
2019-05-18T03:13:28.119Z,9.40
2019-05-18T03:15:56.703Z,9.50
2019-05-18T03:18:25.152Z,9.50
2019-05-18T03:20:53.581Z,9.40
2019-05-18T03:23:22.119Z,9.50
2019-05-18T03:25:50.575Z,9.40
2019-05-18T03:28:19.029Z,9.40
2019-05-18T03:30:47.555Z,9.30
2019-05-18T03:33:16.054Z,9.30
2019-05-18T03:35:44.491Z,9.40
2019-05-18T03:38:13.344Z,9.50
2019-05-18T03:40:42.245Z,9.30
2019-05-18T03:43:10.682Z,9.40
2019-05-18T03:45:39.262Z,9.40
2019-05-18T03:48:07.691Z,9.50
2019-05-18T03:50:36.125Z,9.40
2019-05-18T03:53:04.755Z,9.40
2019-05-18T03:55:33.192Z,9.60
2019-05-18T03:58:01.643Z,9.50
2019-05-18T04:00:30.378Z,9.50
2019-05-18T04:02:59.082Z,9.50
2019-05-18T04:05:27.524Z,9.50
2019-05-18T04:07:56.303Z,9.50
2019-05-18T04:10:25.631Z,9.40
2019-05-18T04:12:54.215Z,9.50
2019-05-18T04:15:22.851Z,9.50
2019-05-18T04:17:51.278Z,9.60
2019-05-18T04:20:19.738Z,9.60
2019-05-18T04:22:48.370Z,9.70
2019-05-18T04:25:16.813Z,9.60
2019-05-18T04:27:45.267Z,9.60
2019-05-18T04:30:14.221Z,9.60
2019-05-18T04:32:42.651Z,9.70
2019-05-18T04:35:11.497Z,9.70
2019-05-18T04:37:40.065Z,9.60
2019-05-18T04:40:08.729Z,9.60
2019-05-18T04:42:37.247Z,9.60
2019-05-18T04:45:09.121Z,9.70
2019-05-18T04:47:37.664Z,9.70
2019-05-18T04:50:10.034Z,9.80
2019-05-18T04:52:38.520Z,9.80
2019-05-18T04:55:07.187Z,9.90
2019-05-18T04:57:35.706Z,9.90
2019-05-18T05:00:06.842Z,10.00
2019-05-18T05:02:35.629Z,10.00
2019-05-18T05:05:05.756Z,10.10
2019-05-18T05:07:34.483Z,10.20
2019-05-18T05:10:04.706Z,10.40
2019-05-18T05:12:33.059Z,10.40
2019-05-18T05:15:01.548Z,10.50
2019-05-18T05:17:30.008Z,10.70
2019-05-18T05:19:58.524Z,10.90
2019-05-18T05:22:27.080Z,11.10
2019-05-18T05:24:55.541Z,11.20
2019-05-18T05:27:24.017Z,11.30
2019-05-18T05:29:52.905Z,11.50
2019-05-18T05:32:21.350Z,11.60
2019-05-18T05:34:49.802Z,11.70
2019-05-18T05:37:18.278Z,11.90
2019-05-18T05:39:46.725Z,12.00
2019-05-18T05:42:15.189Z,12.10
2019-05-18T05:44:43.689Z,12.20
2019-05-18T05:47:12.129Z,12.40
2019-05-18T05:49:40.565Z,12.50
2019-05-18T05:52:09.115Z,12.60
2019-05-18T05:54:37.557Z,12.70
2019-05-18T05:57:05.990Z,12.90
2019-05-18T05:59:34.476Z,13.10
2019-05-18T06:02:02.998Z,13.10
2019-05-18T06:04:31.665Z,13.20
2019-05-18T06:07:00.152Z,13.20
2019-05-18T06:09:28.655Z,13.40
2019-05-18T06:11:57.092Z,13.60
2019-05-18T06:14:25.655Z,13.60
2019-05-18T06:16:54.099Z,13.80
2019-05-18T06:19:22.551Z,14.00
2019-05-18T06:21:51.061Z,14.10
2019-05-18T06:24:19.497Z,14.20
2019-05-18T06:26:47.941Z,14.50
2019-05-18T06:29:16.435Z,14.50
2019-05-18T06:31:44.870Z,14.70
2019-05-18T06:34:13.303Z,14.80
2019-05-18T06:36:41.803Z,15.10
2019-05-18T06:39:10.243Z,15.60
2019-05-18T06:41:38.697Z,15.90
2019-05-18T06:44:07.234Z,16.10
2019-05-18T06:46:35.683Z,16.50
2019-05-18T06:49:04.146Z,17.00
2019-05-18T06:51:32.818Z,17.20
2019-05-18T06:54:01.324Z,17.30
2019-05-18T06:56:32.599Z,17.70
2019-05-18T06:59:01.554Z,18.30
2019-05-18T07:01:30.083Z,18.70
2019-05-18T07:03:58.506Z,19.40
2019-05-18T07:06:27.144Z,19.50
2019-05-18T07:08:55.589Z,19.20
2019-05-18T07:11:24.104Z,19.20
2019-05-18T07:13:52.622Z,19.50
2019-05-18T07:16:21.060Z,20.40
2019-05-18T07:18:49.498Z,21.10
2019-05-18T07:21:22.227Z,21.30
2019-05-18T07:23:48.117Z,23.10
2019-05-18T07:26:16.578Z,24.70
2019-05-18T07:28:45.118Z,24.90
2019-05-18T07:31:13.667Z,26.10
2019-05-18T07:33:42.130Z,26.00
2019-05-18T07:36:10.630Z,25.70
2019-05-18T07:38:39.074Z,25.20
2019-05-18T07:41:07.515Z,26.10
2019-05-18T07:43:36.171Z,26.90
2019-05-18T07:46:04.703Z,27.60
2019-05-18T07:48:33.204Z,28.30
2019-05-18T07:51:01.798Z,28.60
2019-05-18T07:53:33.024Z,28.40
2019-05-18T07:56:01.483Z,27.70
2019-05-18T07:58:30.153Z,28.50
2019-05-18T08:00:58.694Z,28.20
2019-05-18T08:03:27.197Z,28.20
2019-05-18T08:05:55.700Z,28.90
2019-05-18T08:08:24.151Z,30.10
2019-05-18T08:10:52.629Z,30.70
2019-05-18T08:13:21.143Z,30.80
2019-05-18T08:15:49.683Z,30.70
2019-05-18T08:18:18.108Z,29.10
2019-05-18T08:20:46.858Z,29.90
2019-05-18T08:23:15.362Z,29.30
2019-05-18T08:25:43.819Z,29.40
2019-05-18T08:28:13.470Z,30.40
2019-05-18T08:30:41.923Z,31.50
2019-05-18T08:33:10.399Z,31.40
2019-05-18T08:35:38.953Z,32.30
2019-05-18T08:38:07.434Z,31.20
2019-05-18T08:40:35.898Z,29.20
2019-05-18T08:43:04.417Z,31.20
2019-05-18T08:45:32.878Z,30.90
2019-05-18T08:48:01.350Z,31.10
2019-05-18T08:50:29.843Z,30.90
2019-05-18T08:52:58.346Z,31.70
2019-05-18T08:55:26.806Z,30.90
2019-05-18T08:57:55.410Z,31.70
2019-05-18T09:00:24.116Z,30.70
2019-05-18T09:02:52.594Z,31.30
2019-05-18T09:05:21.224Z,31.70
2019-05-18T09:07:49.662Z,32.60
2019-05-18T09:10:18.341Z,31.80
2019-05-18T09:12:46.838Z,32.80
2019-05-18T09:15:15.523Z,33.00
2019-05-18T09:17:43.962Z,32.50
2019-05-18T09:20:13.493Z,33.40
2019-05-18T09:22:41.991Z,35.00
2019-05-18T09:25:10.972Z,33.90
2019-05-18T09:27:39.560Z,34.80
2019-05-18T09:30:09.164Z,35.30
2019-05-18T09:32:37.931Z,36.20
2019-05-18T09:35:07.876Z,35.90
2019-05-18T09:37:36.402Z,35.80
2019-05-18T09:40:08.510Z,35.60
2019-05-18T09:42:37.071Z,33.50
2019-05-18T09:45:06.879Z,34.10
2019-05-18T09:47:35.387Z,35.70
2019-05-18T09:50:04.887Z,33.20
2019-05-18T09:52:44.887Z,35.40
2019-05-18T09:55:04.881Z,34.60
2019-05-18T09:57:33.606Z,35.70
2019-05-18T10:00:02.066Z,35.20
2019-05-18T10:02:30.497Z,34.50
2019-05-18T10:04:59.266Z,33.90
2019-05-18T10:07:27.695Z,35.10
2019-05-18T10:09:56.131Z,34.90
2019-05-18T10:12:25.003Z,35.40
2019-05-18T10:14:53.552Z,36.70
2019-05-18T10:17:22.111Z,34.80
2019-05-18T10:19:50.674Z,33.90
2019-05-18T10:22:19.136Z,33.80
2019-05-18T10:24:47.662Z,33.00
2019-05-18T10:29:46.778Z,33.70
2019-05-18T10:32:15.335Z,32.10
2019-05-18T10:34:43.876Z,32.50
2019-05-18T10:37:12.359Z,34.70
2019-05-18T10:39:40.827Z,35.00
2019-05-18T10:42:09.336Z,35.20
2019-05-18T10:44:37.846Z,35.10
2019-05-18T10:47:06.387Z,36.30
2019-05-18T10:49:34.821Z,35.90
2019-05-18T10:52:03.286Z,35.70
2019-05-18T10:54:31.855Z,36.60
2019-05-18T10:57:00.323Z,36.40
2019-05-18T10:59:28.862Z,36.10
2019-05-18T11:01:57.297Z,34.30
2019-05-18T11:04:25.759Z,34.20
2019-05-18T11:06:54.238Z,33.90
2019-05-18T11:09:22.779Z,32.60
2019-05-18T11:11:51.221Z,32.40
2019-05-18T11:14:19.668Z,33.30
2019-05-18T11:16:48.132Z,32.60
2019-05-18T11:19:16.645Z,33.80
2019-05-18T11:21:45.249Z,35.10
2019-05-18T11:24:13.689Z,34.20
2019-05-18T11:26:42.118Z,33.60
2019-05-18T11:29:12.320Z,34.70
2019-05-18T11:31:40.839Z,36.10
2019-05-18T11:36:36.215Z,36.20
2019-05-18T11:39:09.237Z,34.10
2019-05-18T11:41:37.808Z,35.20
2019-05-18T11:44:06.446Z,36.20
2019-05-18T11:46:34.965Z,36.70
2019-05-18T11:49:03.429Z,35.10
2019-05-18T11:51:31.953Z,34.90
2019-05-18T11:54:00.394Z,34.10
2019-05-18T11:56:28.842Z,34.70
2019-05-18T11:58:57.521Z,35.00
2019-05-18T12:01:25.964Z,35.30
2019-05-18T12:03:54.406Z,34.60
2019-05-18T12:06:22.923Z,33.50
2019-05-18T12:08:51.428Z,32.00
2019-05-18T12:11:19.863Z,32.60
2019-05-18T12:13:48.339Z,31.10
2019-05-18T12:16:17.518Z,31.50
2019-05-18T12:18:46.115Z,30.80
2019-05-18T12:21:14.606Z,31.70
2019-05-18T12:23:43.063Z,32.50
2019-05-18T12:26:11.581Z,32.30
2019-05-18T12:28:40.085Z,32.80
2019-05-18T12:31:08.546Z,33.10
2019-05-18T12:33:36.987Z,32.30
2019-05-18T12:36:07.349Z,32.60
2019-05-18T12:38:36.775Z,31.20
2019-05-18T12:41:05.301Z,31.20
2019-05-18T12:43:33.962Z,30.90
2019-05-18T12:46:02.463Z,30.70
2019-05-18T12:48:30.935Z,30.50
2019-05-18T12:50:59.412Z,30.70
2019-05-18T12:53:27.935Z,31.10
2019-05-18T12:55:56.406Z,30.40
2019-05-18T12:58:24.931Z,30.10
2019-05-18T13:00:53.369Z,28.70
2019-05-18T13:03:21.821Z,28.10
2019-05-18T13:05:50.305Z,28.20
2019-05-18T13:08:18.786Z,28.30
2019-05-18T13:10:47.260Z,28.20
2019-05-18T13:13:15.754Z,27.50
2019-05-18T13:15:44.215Z,27.50
2019-05-18T13:18:12.744Z,27.10
2019-05-18T13:20:41.364Z,26.70
2019-05-18T13:23:09.995Z,26.00
2019-05-18T13:25:38.436Z,25.40
2019-05-18T13:28:07.035Z,25.30
2019-05-18T13:30:35.497Z,25.70
2019-05-18T13:33:05.565Z,25.90
2019-05-18T13:35:35.971Z,25.80
2019-05-18T13:38:04.435Z,25.70
2019-05-18T13:40:33.275Z,25.60
2019-05-18T13:43:01.810Z,25.10
2019-05-18T13:45:30.261Z,25.00
2019-05-18T13:47:58.694Z,24.60
2019-05-18T13:52:57.093Z,24.40
2019-05-18T13:55:25.531Z,24.00
2019-05-18T13:57:53.975Z,24.10
2019-05-18T14:00:22.686Z,23.90
2019-05-18T14:02:51.158Z,24.00
2019-05-18T14:05:19.744Z,23.80
2019-05-18T14:07:48.247Z,23.90
2019-05-18T14:10:17.395Z,23.50
2019-05-18T14:12:45.894Z,23.50
2019-05-18T14:15:15.048Z,23.60
2019-05-18T14:17:43.515Z,23.60
2019-05-18T14:20:14.774Z,23.60
2019-05-18T14:22:43.387Z,23.50
2019-05-18T14:25:19.173Z,23.40
2019-05-18T14:27:42.143Z,23.60
2019-05-18T14:30:10.817Z,23.40
2019-05-18T14:32:39.254Z,23.40
2019-05-18T14:35:09.007Z,23.20
2019-05-18T14:37:37.538Z,23.10
2019-05-18T14:40:08.450Z,22.90
2019-05-18T14:42:36.956Z,22.90
2019-05-18T14:45:09.643Z,22.90
2019-05-18T14:47:38.152Z,22.80
2019-05-18T14:50:07.221Z,22.80
2019-05-18T14:52:35.923Z,22.80
2019-05-18T14:55:05.411Z,22.80
2019-05-18T14:57:33.914Z,22.70
2019-05-18T15:00:02.699Z,22.40
2019-05-18T15:02:31.291Z,22.50
2019-05-18T15:04:59.746Z,22.50
2019-05-18T15:07:28.245Z,22.50
2019-05-18T15:09:56.695Z,22.50
2019-05-18T15:12:25.194Z,22.70
2019-05-18T15:14:53.671Z,22.70
2019-05-18T15:17:22.127Z,22.50
2019-05-18T15:19:50.586Z,22.50
2019-05-18T15:22:19.291Z,22.40
2019-05-18T15:24:47.760Z,22.20
2019-05-18T15:27:16.222Z,22.40
2019-05-18T15:29:44.739Z,22.30
2019-05-18T15:32:13.230Z,22.20
2019-05-18T15:34:42.004Z,22.20
2019-05-18T15:37:10.915Z,22.10
2019-05-18T15:39:39.483Z,22.00
2019-05-18T15:42:08.074Z,22.00
2019-05-18T15:44:37.315Z,21.90
2019-05-18T15:47:05.953Z,21.80
2019-05-18T15:49:34.555Z,21.80
2019-05-18T15:52:03.869Z,21.70
2019-05-18T15:54:32.350Z,21.60
2019-05-18T15:57:00.847Z,21.60
2019-05-18T15:59:29.355Z,21.40
2019-05-18T16:01:57.781Z,21.30
2019-05-18T16:04:26.221Z,21.20
2019-05-18T16:06:54.684Z,21.10
2019-05-18T16:09:23.147Z,21.10
2019-05-18T16:11:51.691Z,21.10
2019-05-18T16:14:20.152Z,21.00
2019-05-18T16:16:48.691Z,21.00
2019-05-18T16:19:17.222Z,21.00
2019-05-18T16:21:46.090Z,21.00
2019-05-18T16:24:14.752Z,21.00
2019-05-18T16:26:43.283Z,20.90
2019-05-18T16:29:11.897Z,20.90
2019-05-18T16:31:40.337Z,20.90
2019-05-18T16:34:08.828Z,20.80
2019-05-18T16:36:37.307Z,20.80
2019-05-18T16:39:07.357Z,20.90
2019-05-18T16:41:35.841Z,20.80
2019-05-18T16:44:04.491Z,20.80
2019-05-18T16:46:32.945Z,20.80
2019-05-18T16:49:01.388Z,20.80
2019-05-18T16:51:29.873Z,20.80
2019-05-18T16:53:58.318Z,20.80
2019-05-18T16:56:34.818Z,20.80
2019-05-18T16:58:57.250Z,20.90
2019-05-18T17:01:25.697Z,20.90
2019-05-18T17:03:54.132Z,20.80
2019-05-18T17:06:22.642Z,20.70
2019-05-18T17:08:51.131Z,20.70
2019-05-18T17:11:19.575Z,20.60
2019-05-18T17:13:48.263Z,20.70
2019-05-18T17:16:16.709Z,20.50
2019-05-18T17:18:45.227Z,20.50
2019-05-18T17:21:13.744Z,20.40
2019-05-18T17:23:42.194Z,20.40
2019-05-18T17:26:10.642Z,20.50
2019-05-18T17:28:39.142Z,20.50
2019-05-18T17:31:07.621Z,20.40
2019-05-18T17:33:36.202Z,20.30
2019-05-18T17:36:04.903Z,20.30
2019-05-18T17:38:33.356Z,20.40
2019-05-18T17:41:01.845Z,20.30
2019-05-18T17:43:30.595Z,20.40
2019-05-18T17:45:59.187Z,20.30
2019-05-18T17:48:28.017Z,20.20
2019-05-18T17:50:56.520Z,20.20
2019-05-18T17:53:24.963Z,20.20
2019-05-18T17:55:53.413Z,20.10
2019-05-18T17:58:22.082Z,20.20
2019-05-18T18:00:50.608Z,20.10
2019-05-18T18:03:19.045Z,20.10
2019-05-18T18:05:47.563Z,20.00
2019-05-18T18:08:16.003Z,20.00
2019-05-18T18:10:44.923Z,19.80
2019-05-18T18:13:13.527Z,19.80
2019-05-18T18:15:41.972Z,19.70
2019-05-18T18:18:10.403Z,19.80
2019-05-18T18:20:38.908Z,19.80
2019-05-18T18:23:07.359Z,19.70
2019-05-18T18:25:35.817Z,19.50
2019-05-18T18:28:04.424Z,19.60
2019-05-18T18:30:32.870Z,19.60
2019-05-18T18:33:01.411Z,19.50
2019-05-18T18:35:29.994Z,19.30
2019-05-18T18:37:58.486Z,19.30
2019-05-18T18:40:26.935Z,19.30
2019-05-18T18:42:55.555Z,19.30
2019-05-18T18:45:24.038Z,19.20
2019-05-18T18:47:52.582Z,19.30
2019-05-18T18:50:21.195Z,19.20
2019-05-18T18:52:49.660Z,19.00
2019-05-18T18:55:18.187Z,19.10
2019-05-18T18:57:46.767Z,18.90
2019-05-18T19:00:15.863Z,18.90
2019-05-18T19:02:44.563Z,18.70
2019-05-18T19:05:13.383Z,18.70
2019-05-18T19:07:41.886Z,18.70
2019-05-18T19:10:10.573Z,18.50
2019-05-18T19:12:39.162Z,18.60
2019-05-18T19:15:09.614Z,18.50
2019-05-18T19:17:38.138Z,18.50
2019-05-18T19:20:07.219Z,18.30
2019-05-18T19:22:35.734Z,18.20
2019-05-18T19:25:04.618Z,18.20
2019-05-18T19:27:33.114Z,18.30
2019-05-18T19:30:01.563Z,18.20
2019-05-18T19:32:30.083Z,18.10
2019-05-18T19:34:58.662Z,18.20
2019-05-18T19:37:27.114Z,18.00
2019-05-18T19:39:55.551Z,17.90
2019-05-18T19:42:24.184Z,17.80
2019-05-18T19:44:52.607Z,17.80
2019-05-18T19:47:21.060Z,17.80
2019-05-18T19:49:49.689Z,17.50
2019-05-18T19:52:18.130Z,17.50
2019-05-18T19:54:46.575Z,17.40
2019-05-18T19:57:15.150Z,17.50
2019-05-18T19:59:45.742Z,17.40
2019-05-18T20:02:18.205Z,17.40
2019-05-18T20:05:05.267Z,17.50
2019-05-18T20:07:14.714Z,17.40
2019-05-18T20:09:43.238Z,17.30
2019-05-18T20:12:11.692Z,17.30
2019-05-18T20:14:40.155Z,17.40
2019-05-18T20:17:08.647Z,17.20
2019-05-18T20:19:39.735Z,17.30
2019-05-18T20:22:07.404Z,17.20
2019-05-18T20:24:35.841Z,17.20
2019-05-18T20:27:04.329Z,17.10
2019-05-18T20:29:32.757Z,16.90
2019-05-18T20:32:01.206Z,16.70
2019-05-18T20:34:29.878Z,16.40
2019-05-18T20:36:58.333Z,16.40
2019-05-18T20:39:26.778Z,16.40
2019-05-18T20:41:55.322Z,16.40
2019-05-18T20:44:23.760Z,16.50
2019-05-18T20:46:52.212Z,16.50
2019-05-18T20:49:20.806Z,16.50
2019-05-18T20:51:49.247Z,16.40
2019-05-18T20:54:17.762Z,16.30
2019-05-18T20:56:46.399Z,16.40
2019-05-18T20:59:14.903Z,16.40
2019-05-18T21:01:43.354Z,16.40
2019-05-18T21:04:11.886Z,16.30
2019-05-18T21:06:41.431Z,16.30
2019-05-18T21:09:09.877Z,16.20
2019-05-18T21:11:38.318Z,16.00
2019-05-18T21:14:06.776Z,16.10
2019-05-18T21:16:35.244Z,16.20
2019-05-18T21:19:03.864Z,16.10
2019-05-18T21:21:32.305Z,16.10
2019-05-18T21:24:00.971Z,16.10
2019-05-18T21:26:29.460Z,16.10
2019-05-18T21:29:00.715Z,16.00
2019-05-18T21:31:28.111Z,15.90
2019-05-18T21:33:56.606Z,16.00
2019-05-18T21:36:25.063Z,16.00
2019-05-18T21:38:53.497Z,16.00
2019-05-18T21:41:22.092Z,16.00
2019-05-18T21:43:50.531Z,16.10
2019-05-18T21:46:18.980Z,15.80
2019-05-18T21:48:47.476Z,15.70
2019-05-18T21:51:15.919Z,15.60
2019-05-18T21:53:44.363Z,15.50
2019-05-18T21:56:12.971Z,15.40
2019-05-18T21:58:41.407Z,15.40
2019-05-18T22:01:09.909Z,15.40
2019-05-18T22:03:38.622Z,15.50
2019-05-18T22:06:07.065Z,15.50
2019-05-18T22:08:35.520Z,15.50
2019-05-18T22:11:04.003Z,15.60
2019-05-18T22:13:32.439Z,15.50
2019-05-18T22:16:00.882Z,15.40
2019-05-18T22:18:29.363Z,15.50
2019-05-18T22:20:57.813Z,15.40
2019-05-18T22:23:26.327Z,15.40
2019-05-18T22:25:57.034Z,15.30
2019-05-18T22:28:25.117Z,15.20
2019-05-18T22:30:53.551Z,15.20
2019-05-18T22:33:22.046Z,15.30
2019-05-18T22:35:50.571Z,15.40
2019-05-18T22:38:19.042Z,15.30
2019-05-18T22:40:47.627Z,15.40
2019-05-18T22:43:16.079Z,15.20
2019-05-18T22:45:44.610Z,14.90
2019-05-18T22:48:13.309Z,15.00
2019-05-18T22:50:41.773Z,14.90
2019-05-18T22:53:10.209Z,15.10
2019-05-18T22:55:38.834Z,15.00
2019-05-18T22:58:07.279Z,14.70
2019-05-18T23:00:35.781Z,14.70
2019-05-18T23:03:04.421Z,14.70
2019-05-18T23:05:32.908Z,14.70
2019-05-18T23:08:01.357Z,14.60
2019-05-18T23:10:30.069Z,14.60
2019-05-18T23:12:58.668Z,14.40
2019-05-18T23:15:27.191Z,14.50
2019-05-18T23:17:55.690Z,14.60
2019-05-18T23:20:24.146Z,14.40
2019-05-18T23:22:52.594Z,14.40
2019-05-18T23:25:21.137Z,14.40
2019-05-18T23:27:49.621Z,14.30
2019-05-18T23:30:18.522Z,14.40
2019-05-18T23:32:50.263Z,14.50
2019-05-18T23:35:17.403Z,14.20
2019-05-18T23:37:45.896Z,14.20
2019-05-18T23:40:14.630Z,14.10
2019-05-18T23:42:43.071Z,14.10
2019-05-18T23:47:52.551Z,14.10
2019-05-18T23:50:20.975Z,13.80
2019-05-18T23:52:49.421Z,13.80
2019-05-18T23:55:18.094Z,13.90
2019-05-18T23:57:46.535Z,13.80
